createdAt,value
2019-04-25T10:39:29.320Z,1008.32
2019-04-25T10:40:29.201Z,1008.34
2019-04-25T10:41:29.188Z,1008.16
2019-04-25T10:42:29.177Z,1008.08
2019-04-25T10:43:29.165Z,1008.26
2019-04-25T10:44:29.152Z,1008.24
2019-04-25T10:45:29.142Z,1008.04
2019-04-25T10:46:29.134Z,1007.59
2019-04-25T10:47:29.122Z,1007.53
2019-04-25T10:48:29.109Z,1007.62
2019-04-25T10:49:29.100Z,1007.59
2019-04-25T10:50:29.095Z,1007.74
2019-04-25T10:51:29.079Z,1007.74
2019-04-25T10:52:29.067Z,1007.53
2019-04-25T10:53:29.057Z,1007.42
2019-04-25T10:54:29.045Z,1007.79
2019-04-25T10:55:29.036Z,1007.60
2019-04-25T10:56:29.025Z,1007.50
2019-04-25T10:57:29.014Z,1007.47
2019-04-25T10:58:29.004Z,1007.58
2019-04-25T10:59:28.994Z,1007.63
2019-04-25T11:00:28.983Z,1007.76
2019-04-25T11:01:28.976Z,1007.80
2019-04-25T11:02:28.962Z,1007.78
2019-04-25T11:03:28.954Z,1007.80
2019-04-25T11:04:28.942Z,1007.51
2019-04-25T11:05:28.935Z,1007.68
2019-04-25T11:06:28.925Z,1007.67
2019-04-25T11:07:28.916Z,1007.61
2019-04-25T11:08:28.922Z,1007.56
2019-04-25T11:09:28.901Z,1007.62
2019-04-25T11:10:28.888Z,1007.66
2019-04-25T11:11:28.881Z,1007.68
2019-04-25T11:12:28.872Z,1007.80
2019-04-25T11:13:28.863Z,1007.64
2019-04-25T11:14:28.855Z,1007.71
2019-04-25T11:15:28.846Z,1007.68
2019-04-25T11:16:28.836Z,1007.79
2019-04-25T11:17:28.830Z,1007.66
2019-04-25T11:18:28.820Z,1007.93
2019-04-25T11:19:28.816Z,1007.63
2019-04-25T11:20:28.806Z,1007.79
2019-04-25T11:21:28.797Z,1007.74
2019-04-25T11:22:28.788Z,1007.78
2019-04-25T11:23:28.780Z,1007.83
2019-04-25T11:24:28.772Z,1007.67
2019-04-25T11:25:28.765Z,1007.88
2019-04-25T11:26:28.761Z,1007.90
2019-04-25T11:27:28.748Z,1008.15
2019-04-25T11:28:28.743Z,1008.01
2019-04-25T11:29:28.731Z,1007.81
2019-04-25T11:30:28.721Z,1007.84
2019-04-25T11:31:28.718Z,1007.86
2019-04-25T11:32:28.707Z,1008.08
2019-04-25T11:33:28.694Z,1008.00
2019-04-25T11:34:28.687Z,1008.03
2019-04-25T11:35:28.679Z,1008.02
2019-04-25T11:36:28.671Z,1008.08
2019-04-25T11:37:28.666Z,1007.48
2019-04-25T11:38:30.818Z,1008.23
2019-04-25T11:39:28.643Z,1007.71
2019-04-25T11:40:28.635Z,1007.95
2019-04-25T11:41:28.626Z,1007.70
2019-04-25T11:42:28.619Z,1007.64
2019-04-25T11:43:28.609Z,1007.71
2019-04-25T11:44:28.600Z,1007.72
2019-04-25T11:45:28.594Z,1008.24
2019-04-25T11:46:28.582Z,1008.33
2019-04-25T11:47:28.573Z,1008.42
2019-04-25T11:48:28.563Z,1008.32
2019-04-25T11:49:28.556Z,1008.25
2019-04-25T11:50:28.547Z,1008.37
2019-04-25T11:51:28.537Z,1008.19
2019-04-25T11:52:30.309Z,1008.27
2019-04-25T11:53:28.520Z,1008.24
2019-04-25T11:54:28.512Z,1008.28
2019-04-25T11:55:28.505Z,1008.22
2019-04-25T11:56:28.496Z,1007.36
2019-04-25T11:57:28.488Z,1008.19
2019-04-25T11:58:28.481Z,1008.23
2019-04-25T11:59:28.473Z,1008.29
2019-04-25T12:00:28.465Z,1008.19
2019-04-25T12:01:28.458Z,1008.32
2019-04-25T12:02:28.451Z,1008.03
2019-04-25T12:03:28.443Z,1007.70
2019-04-25T12:04:28.435Z,1007.74
2019-04-25T12:05:28.426Z,1007.75
2019-04-25T12:06:28.419Z,1007.66
2019-04-25T12:07:28.409Z,1007.83
2019-04-25T12:08:28.400Z,1007.76
2019-04-25T12:09:28.390Z,1008.28
2019-04-25T12:10:28.381Z,1007.90
2019-04-25T12:11:28.396Z,1007.66
2019-04-25T12:12:28.363Z,1007.64
2019-04-25T12:13:28.353Z,1007.52
2019-04-25T12:14:28.343Z,1007.19
2019-04-25T12:15:28.333Z,1007.15
2019-04-25T12:16:28.321Z,1007.14
2019-04-25T12:17:28.311Z,1007.12
2019-04-25T12:18:28.301Z,1007.05
2019-04-25T12:19:35.865Z,1007.15
2019-04-25T12:20:28.291Z,1007.12
2019-04-25T12:21:28.266Z,1007.31
2019-04-25T12:22:28.256Z,1006.84
2019-04-25T12:23:28.242Z,1006.90
2019-04-25T12:24:28.236Z,1007.09
2019-04-25T12:25:28.223Z,1007.33
2019-04-25T12:26:28.205Z,1007.13
2019-04-25T12:27:28.193Z,1007.25
2019-04-25T12:28:28.179Z,1007.15
2019-04-25T12:29:28.166Z,1007.05
2019-04-25T12:30:37.142Z,1007.06
2019-04-25T12:31:28.143Z,1007.07
2019-04-25T12:32:28.131Z,1006.94
2019-04-25T12:33:28.117Z,1007.01
2019-04-25T12:34:28.105Z,1007.00
2019-04-25T12:35:28.096Z,1007.07
2019-04-25T12:36:28.086Z,1006.96
2019-04-25T12:37:28.069Z,1006.90
2019-04-25T12:38:28.059Z,1006.97
2019-04-25T12:39:28.048Z,1007.10
2019-04-25T12:40:28.034Z,1006.85
2019-04-25T12:41:28.023Z,1006.95
2019-04-25T12:42:28.011Z,1006.97
2019-04-25T12:43:28.001Z,1006.87
2019-04-25T12:44:27.986Z,1006.85
2019-04-25T12:45:27.974Z,1006.78
2019-04-25T12:46:27.962Z,1006.72
2019-04-25T12:47:27.950Z,1006.75
2019-04-25T12:48:27.935Z,1006.68
2019-04-25T12:49:27.925Z,1006.66
2019-04-25T12:50:27.912Z,1006.71
2019-04-25T12:51:27.898Z,1006.72
2019-04-25T12:52:27.885Z,1006.74
2019-04-25T12:53:27.871Z,1006.76
2019-04-25T12:54:27.858Z,1006.77
2019-04-25T12:55:27.849Z,1006.78
2019-04-25T12:56:27.831Z,1006.72
2019-04-25T12:57:27.815Z,1006.74
2019-04-25T12:58:27.803Z,1006.70
2019-04-25T12:59:27.789Z,1006.73
2019-04-25T13:00:27.774Z,1006.76
2019-04-25T13:01:27.765Z,1006.89
2019-04-25T13:02:27.747Z,1007.72
2019-04-25T13:03:27.733Z,1007.21
2019-04-25T13:04:27.719Z,1006.87
2019-04-25T13:05:27.705Z,1006.77
2019-04-25T13:06:27.693Z,1006.83
2019-04-25T13:07:27.683Z,1006.86
2019-04-25T13:08:27.672Z,1007.59
2019-04-25T13:09:27.650Z,1007.14
2019-04-25T13:10:27.644Z,1007.16
2019-04-25T13:11:27.624Z,1006.85
2019-04-25T13:12:27.609Z,1006.77
2019-04-25T13:13:27.596Z,1006.86
2019-04-25T13:14:28.604Z,1006.79
2019-04-25T13:15:28.368Z,1006.68
2019-04-25T13:16:27.559Z,1006.68
2019-04-25T13:17:27.543Z,1006.63
2019-04-25T13:18:27.529Z,1006.62
2019-04-25T13:19:27.515Z,1006.49
2019-04-25T13:20:27.501Z,1006.72
2019-04-25T13:21:27.487Z,1006.75
2019-04-25T13:22:27.474Z,1006.49
2019-04-25T13:23:27.459Z,1006.59
2019-04-25T13:24:27.445Z,1006.73
2019-04-25T13:25:27.433Z,1006.68
2019-04-25T13:26:27.418Z,1006.83
2019-04-25T13:27:27.404Z,1006.86
2019-04-25T13:28:27.390Z,1006.84
2019-04-25T13:29:27.374Z,1006.81
2019-04-25T13:30:27.364Z,1006.66
2019-04-25T13:31:27.347Z,1006.78
2019-04-25T13:32:27.333Z,1006.77
2019-04-25T13:33:27.319Z,1006.74
2019-04-25T13:34:36.091Z,1006.91
2019-04-25T13:35:27.297Z,1006.91
2019-04-25T13:36:27.277Z,1006.79
2019-04-25T13:37:27.264Z,1006.78
2019-04-25T13:38:27.252Z,1006.89
2019-04-25T13:39:27.237Z,1007.05
2019-04-25T13:40:27.224Z,1006.94
2019-04-25T13:41:27.210Z,1006.90
2019-04-25T13:42:27.195Z,1007.04
2019-04-25T13:43:27.182Z,1006.95
2019-04-25T13:44:27.168Z,1006.81
2019-04-25T13:45:27.155Z,1006.86
2019-04-25T13:46:27.687Z,1006.92
2019-04-25T13:47:29.181Z,1006.83
2019-04-25T13:48:27.996Z,1006.92
2019-04-25T13:49:27.305Z,1007.01
2019-04-25T13:50:27.617Z,1006.91
2019-04-25T13:51:27.072Z,1006.95
2019-04-25T13:52:27.058Z,1007.04
2019-04-25T13:53:27.394Z,1007.00
2019-04-25T13:54:27.033Z,1007.06
2019-04-25T13:55:27.019Z,1007.07
2019-04-25T13:56:27.842Z,1006.99
2019-04-25T13:57:27.853Z,1007.10
2019-04-25T13:58:29.512Z,1007.10
2019-04-25T13:59:26.982Z,1007.15
2019-04-25T14:00:27.755Z,1007.02
2019-04-25T14:01:27.610Z,1007.13
2019-04-25T14:02:26.925Z,1007.05
2019-04-25T14:03:27.307Z,1007.07
2019-04-25T14:04:27.987Z,1007.28
2019-04-25T14:05:26.885Z,1007.42
2019-04-25T14:06:26.870Z,1007.15
2019-04-25T14:07:27.333Z,1007.09
2019-04-25T14:08:27.005Z,1007.00
2019-04-25T14:09:27.155Z,1007.14
2019-04-25T14:10:26.825Z,1007.17
2019-04-25T14:11:26.804Z,1007.13
2019-04-25T14:12:28.743Z,1007.03
2019-04-25T14:13:27.522Z,1007.14
2019-04-25T14:14:26.834Z,1007.09
2019-04-25T14:15:27.492Z,1007.05
2019-04-25T14:16:26.847Z,1007.12
2019-04-25T14:17:26.724Z,1007.00
2019-04-25T14:18:26.710Z,1007.18
2019-04-25T14:19:26.698Z,1007.14
2019-04-25T14:20:26.699Z,1007.19
2019-04-25T14:21:27.306Z,1007.16
2019-04-25T14:22:27.530Z,1007.15
2019-04-25T14:23:27.415Z,1007.18
2019-04-25T14:24:30.525Z,1007.11
2019-04-25T14:25:27.640Z,1007.16
2019-04-25T14:26:27.056Z,1007.16
2019-04-25T14:27:26.587Z,1007.19
2019-04-25T14:28:29.349Z,1007.19
2019-04-25T14:29:26.558Z,1007.20
2019-04-25T14:30:26.546Z,1007.11
2019-04-25T14:31:41.334Z,1007.21
2019-04-25T14:32:28.708Z,1007.16
2019-04-25T14:33:27.447Z,1007.19
2019-04-25T14:34:26.619Z,1007.16
2019-04-25T14:35:26.636Z,1007.10
2019-04-25T14:36:28.353Z,1007.15
2019-04-25T14:37:29.808Z,1007.11
2019-04-25T14:38:26.646Z,1007.10
2019-04-25T14:39:27.410Z,1007.08
2019-04-25T14:40:27.030Z,1007.08
2019-04-25T14:41:26.393Z,1007.04
2019-04-25T14:42:26.506Z,1007.10
2019-04-25T14:43:26.364Z,1007.12
2019-04-25T14:44:26.350Z,1007.14
2019-04-25T14:45:26.654Z,1007.14
2019-04-25T14:46:26.576Z,1007.21
2019-04-25T14:47:26.308Z,1007.16
2019-04-25T14:48:27.190Z,1007.17
2019-04-25T14:49:26.385Z,1007.17
2019-04-25T14:50:26.994Z,1007.21
2019-04-25T14:51:26.255Z,1007.21
2019-04-25T14:52:26.235Z,1007.26
2019-04-25T14:53:26.221Z,1007.26
2019-04-25T14:54:26.401Z,1007.23
2019-04-25T14:55:26.193Z,1007.22
2019-04-25T14:56:26.179Z,1007.22
2019-04-25T14:57:26.189Z,1007.36
2019-04-25T14:58:26.205Z,1007.40
2019-04-25T14:59:26.476Z,1007.44
2019-04-25T15:00:26.176Z,1007.45
2019-04-25T15:01:26.126Z,1007.48
2019-04-25T15:02:26.090Z,1007.53
2019-04-25T15:03:26.104Z,1007.58
2019-04-25T15:04:26.063Z,1007.61
2019-04-25T15:05:26.044Z,1007.67
2019-04-25T15:06:26.029Z,1007.68
2019-04-25T15:07:26.013Z,1007.68
2019-04-25T15:08:26.602Z,1007.73
2019-04-25T15:09:26.810Z,1007.80
2019-04-25T15:10:26.551Z,1007.84
2019-04-25T15:11:26.941Z,1007.82
2019-04-25T15:12:26.863Z,1007.85
2019-04-25T15:13:25.919Z,1007.92
2019-04-25T15:14:26.897Z,1007.93
2019-04-25T15:15:26.582Z,1007.97
2019-04-25T15:16:25.872Z,1007.97
2019-04-25T15:17:26.446Z,1007.94
2019-04-25T15:18:26.704Z,1008.10
2019-04-25T15:19:25.826Z,1008.14
2019-04-25T15:20:26.156Z,1008.04
2019-04-25T15:21:26.258Z,1008.08
2019-04-25T15:22:25.777Z,1008.19
2019-04-25T15:23:25.762Z,1008.26
2019-04-25T15:24:25.748Z,1008.28
2019-04-25T15:25:26.184Z,1008.19
2019-04-25T15:29:26.503Z,1008.13
2019-04-25T15:30:29.003Z,1008.11
2019-04-25T15:31:25.707Z,1008.08
2019-04-25T15:32:26.168Z,1008.29
2019-04-25T15:33:26.443Z,1008.13
2019-04-25T15:34:25.987Z,1008.13
2019-04-25T15:35:25.851Z,1008.16
2019-04-25T15:36:25.560Z,1008.20
2019-04-25T15:37:26.457Z,1008.19
2019-04-25T15:38:25.528Z,1008.19
2019-04-25T15:39:26.177Z,1008.22
2019-04-25T15:40:26.331Z,1008.21
2019-04-25T15:41:26.219Z,1008.14
2019-04-25T15:42:26.227Z,1008.13
2019-04-25T15:43:26.281Z,1008.11
2019-04-25T15:44:25.433Z,1008.16
2019-04-25T15:45:26.362Z,1008.12
2019-04-25T15:46:26.093Z,1008.15
2019-04-25T15:47:26.413Z,1008.10
2019-04-25T15:48:26.163Z,1008.16
2019-04-25T15:49:25.424Z,1008.13
2019-04-25T15:50:26.327Z,1008.15
2019-04-25T15:51:25.554Z,1008.18
2019-04-25T15:52:26.658Z,1008.18
2019-04-25T15:53:25.291Z,1008.13
2019-04-25T15:54:26.294Z,1008.12
2019-04-25T15:55:26.234Z,1008.08
2019-04-25T15:56:25.241Z,1008.03
2019-04-25T15:57:25.247Z,1008.05
2019-04-25T15:58:25.347Z,1008.04
2019-04-25T15:59:25.195Z,1008.00
2019-04-25T16:00:25.179Z,1007.94
2019-04-25T16:01:26.363Z,1007.88
2019-04-25T16:02:25.146Z,1007.87
2019-04-25T16:03:25.143Z,1007.84
2019-04-25T16:04:25.705Z,1007.87
2019-04-25T16:05:25.651Z,1007.87
2019-04-25T16:06:25.571Z,1007.85
2019-04-25T16:07:25.066Z,1007.91
2019-04-25T16:08:25.048Z,1007.88
2019-04-25T16:09:25.039Z,1007.88
2019-04-25T16:10:25.018Z,1007.82
2019-04-25T16:11:26.516Z,1007.82
2019-04-25T16:12:24.984Z,1007.86
2019-04-25T16:13:25.896Z,1007.89
2019-04-25T16:14:26.354Z,1007.93
2019-04-25T16:15:24.937Z,1007.94
2019-04-25T16:16:24.920Z,1007.95
2019-04-25T16:17:24.905Z,1007.97
2019-04-25T16:18:24.890Z,1007.97
2019-04-25T16:19:24.875Z,1007.93
2019-04-25T16:20:24.856Z,1007.94
2019-04-25T16:21:24.845Z,1007.95
2019-04-25T16:22:24.827Z,1007.96
2019-04-25T16:23:24.813Z,1007.93
2019-04-25T16:24:24.793Z,1007.97
2019-04-25T16:25:24.777Z,1007.97
2019-04-25T16:26:24.762Z,1008.00
2019-04-25T16:27:24.747Z,1007.98
2019-04-25T16:28:24.731Z,1007.92
2019-04-25T16:29:24.716Z,1007.93
2019-04-25T16:30:24.710Z,1007.94
2019-04-25T16:31:24.681Z,1007.96
2019-04-25T16:32:24.666Z,1007.97
2019-04-25T16:33:24.649Z,1007.97
2019-04-25T16:34:24.634Z,1007.95
2019-04-25T16:35:24.618Z,1008.01
2019-04-25T16:36:24.603Z,1007.96
2019-04-25T16:37:24.587Z,1007.99
2019-04-25T16:38:24.570Z,1007.90
2019-04-25T16:39:24.555Z,1007.90
2019-04-25T16:40:24.537Z,1007.98
2019-04-25T16:41:24.521Z,1007.98
2019-04-25T16:42:24.506Z,1008.01
2019-04-25T16:43:24.491Z,1008.01
2019-04-25T16:44:24.473Z,1007.96
2019-04-25T16:45:24.458Z,1007.96
2019-04-25T16:46:24.445Z,1008.00
2019-04-25T16:47:24.428Z,1007.99
2019-04-25T16:48:24.411Z,1008.00
2019-04-25T16:49:24.399Z,1008.06
2019-04-25T16:50:24.378Z,1008.04
2019-04-25T16:51:24.363Z,1008.04
2019-04-25T16:52:24.347Z,1008.04
2019-04-25T16:53:24.330Z,1008.06
2019-04-25T16:54:24.314Z,1008.04
2019-04-25T16:55:24.299Z,1008.10
2019-04-25T16:56:24.282Z,1008.15
2019-04-25T16:57:24.267Z,1008.16
2019-04-25T16:58:24.267Z,1008.20
2019-04-25T16:59:24.234Z,1008.20
2019-04-25T17:00:24.219Z,1008.20
2019-04-25T17:01:24.203Z,1008.21
2019-04-25T17:02:32.843Z,1008.23
2019-04-25T17:03:24.171Z,1008.21
2019-04-25T17:04:24.154Z,1008.25
2019-04-25T17:05:24.137Z,1008.30
2019-04-25T17:06:24.121Z,1008.28
2019-04-25T17:07:24.106Z,1008.30
2019-04-25T17:08:24.088Z,1008.27
2019-04-25T17:09:24.073Z,1008.30
2019-04-25T17:10:24.057Z,1008.31
2019-04-25T17:11:24.040Z,1008.33
2019-04-25T17:12:24.030Z,1008.35
2019-04-25T17:13:24.007Z,1008.37
2019-04-25T17:14:23.990Z,1008.34
2019-04-25T17:15:23.975Z,1008.36
2019-04-25T17:16:23.957Z,1008.42
2019-04-25T17:17:23.945Z,1008.40
2019-04-25T17:18:23.932Z,1008.41
2019-04-25T17:19:23.910Z,1008.44
2019-04-25T17:20:23.891Z,1008.48
2019-04-25T17:21:23.876Z,1008.50
2019-04-25T17:22:23.859Z,1008.49
2019-04-25T17:23:23.843Z,1008.53
2019-04-25T17:24:23.825Z,1008.51
2019-04-25T17:25:23.808Z,1008.56
2019-04-25T17:26:23.791Z,1008.53
2019-04-25T17:27:23.775Z,1008.57
2019-04-25T17:28:23.757Z,1008.60
2019-04-25T17:29:23.742Z,1008.58
2019-04-25T17:30:23.726Z,1008.62
2019-04-25T17:31:23.707Z,1008.61
2019-04-25T17:32:23.691Z,1008.61
2019-04-25T17:33:23.680Z,1008.62
2019-04-25T17:34:23.658Z,1008.63
2019-04-25T17:35:23.642Z,1008.61
2019-04-25T17:36:23.623Z,1008.61
2019-04-25T17:37:23.605Z,1008.64
2019-04-25T17:38:23.588Z,1008.64
2019-04-25T17:39:23.617Z,1008.65
2019-04-25T17:40:23.558Z,1008.68
2019-04-25T17:41:23.536Z,1008.70
2019-04-25T17:42:23.521Z,1008.74
2019-04-25T17:43:23.504Z,1008.76
2019-04-25T17:44:23.486Z,1008.77
2019-04-25T17:45:23.471Z,1008.71
2019-04-25T17:46:23.455Z,1008.71
2019-04-25T17:47:23.437Z,1008.67
2019-04-25T17:48:23.418Z,1008.64
2019-04-25T17:49:23.398Z,1008.62
2019-04-25T17:50:23.382Z,1008.61
2019-04-25T17:51:23.365Z,1008.69
2019-04-25T17:52:23.347Z,1008.62
2019-04-25T17:53:23.330Z,1008.63
2019-04-25T17:54:23.312Z,1008.57
2019-04-25T17:55:23.295Z,1008.56
2019-04-25T17:56:23.276Z,1008.51
2019-04-25T17:57:23.266Z,1008.50
2019-04-25T17:58:23.241Z,1008.49
2019-04-25T17:59:23.226Z,1008.44
2019-04-25T18:00:23.208Z,1008.35
2019-04-25T18:01:23.190Z,1008.23
2019-04-25T18:02:23.173Z,1008.24
2019-04-25T18:03:23.155Z,1008.19
2019-04-25T18:04:23.143Z,1008.25
2019-04-25T18:05:23.122Z,1008.21
2019-04-25T18:06:23.104Z,1008.21
2019-04-25T18:07:23.085Z,1008.27
2019-04-25T18:08:23.857Z,1008.25
2019-04-25T18:09:23.050Z,1008.31
2019-04-25T18:10:23.034Z,1008.29
2019-04-25T18:11:23.016Z,1008.31
2019-04-25T18:12:22.996Z,1008.30
2019-04-25T18:13:22.979Z,1008.30
2019-04-25T18:14:22.963Z,1008.27
2019-04-25T18:15:22.944Z,1008.24
2019-04-25T18:16:22.926Z,1008.24
2019-04-25T18:17:22.910Z,1008.26
2019-04-25T18:18:22.893Z,1008.33
2019-04-25T18:19:25.066Z,1008.30
2019-04-25T18:20:22.856Z,1008.36
2019-04-25T18:21:22.837Z,1008.45
2019-04-25T18:22:22.821Z,1008.53
2019-04-25T18:23:22.802Z,1008.55
2019-04-25T18:24:22.785Z,1008.59
2019-04-25T18:25:22.767Z,1008.61
2019-04-25T18:26:22.749Z,1008.58
2019-04-25T18:27:22.735Z,1008.62
2019-04-25T18:28:22.712Z,1008.53
2019-04-25T18:29:22.696Z,1008.48
2019-04-25T18:30:22.677Z,1008.51
2019-04-25T18:31:22.665Z,1008.53
2019-04-25T18:32:22.640Z,1008.54
2019-04-25T18:33:22.625Z,1008.59
2019-04-25T18:34:22.604Z,1008.61
2019-04-25T18:35:22.586Z,1008.63
2019-04-25T18:36:22.567Z,1008.59
2019-04-25T18:37:22.700Z,1008.65
2019-04-25T18:38:22.531Z,1008.63
2019-04-25T18:39:22.555Z,1008.60
2019-04-25T18:40:22.493Z,1008.67
2019-04-25T18:41:22.476Z,1008.76
2019-04-25T18:42:22.457Z,1008.76
2019-04-25T18:43:22.440Z,1008.82
2019-04-25T18:44:22.419Z,1008.91
2019-04-25T18:45:22.402Z,1008.83
2019-04-25T18:46:22.385Z,1008.78
2019-04-25T18:47:22.366Z,1008.76
2019-04-25T18:48:22.347Z,1008.71
2019-04-25T18:49:22.331Z,1008.75
2019-04-25T18:50:22.308Z,1008.76
2019-04-25T18:51:22.290Z,1008.76
2019-04-25T18:52:22.270Z,1008.80
2019-04-25T18:53:22.256Z,1008.76
2019-04-25T18:54:22.233Z,1008.71
2019-04-25T18:55:22.216Z,1008.72
2019-04-25T18:56:22.199Z,1008.88
2019-04-25T18:57:22.183Z,1008.91
2019-04-25T18:58:22.158Z,1008.89
2019-04-25T18:59:22.139Z,1008.87
2019-04-25T19:00:22.122Z,1008.95
2019-04-25T19:01:22.102Z,1008.85
2019-04-25T19:02:22.083Z,1008.86
2019-04-25T19:03:24.519Z,1008.93
2019-04-25T19:04:22.046Z,1009.00
2019-04-25T19:05:22.025Z,1009.02
2019-04-25T19:06:22.009Z,1009.06
2019-04-25T19:07:22.914Z,1009.09
2019-04-25T19:08:21.969Z,1009.11
2019-04-25T19:09:21.951Z,1009.14
2019-04-25T19:10:21.932Z,1009.20
2019-04-25T19:11:21.912Z,1009.22
2019-04-25T19:12:21.893Z,1009.37
2019-04-25T19:13:21.874Z,1009.25
2019-04-25T19:14:21.855Z,1009.35
2019-04-25T19:15:21.835Z,1009.33
2019-04-25T19:16:21.817Z,1009.28
2019-04-25T19:17:21.798Z,1009.32
2019-04-25T19:18:21.781Z,1009.42
2019-04-25T19:19:21.759Z,1009.41
2019-04-25T19:20:21.740Z,1009.42
2019-04-25T19:21:21.722Z,1009.35
2019-04-25T19:22:21.703Z,1009.25
2019-04-25T19:23:21.745Z,1009.23
2019-04-25T19:24:21.663Z,1009.23
2019-04-25T19:25:21.644Z,1009.26
2019-04-25T19:26:21.625Z,1009.25
2019-04-25T19:27:23.832Z,1009.26
2019-04-25T19:28:21.588Z,1009.15
2019-04-25T19:29:21.566Z,1009.08
2019-04-25T19:30:21.547Z,1009.07
2019-04-25T19:31:21.527Z,1009.10
2019-04-25T19:32:21.507Z,1009.04
2019-04-25T19:33:21.490Z,1009.04
2019-04-25T19:34:21.469Z,1009.06
2019-04-25T19:35:21.454Z,1009.05
2019-04-25T19:36:21.430Z,1009.00
2019-04-25T19:37:21.416Z,1009.04
2019-04-25T19:38:21.391Z,1009.02
2019-04-25T19:39:21.373Z,1009.05
2019-04-25T19:40:21.353Z,1009.05
2019-04-25T19:41:21.332Z,1009.09
2019-04-25T19:42:21.313Z,1009.13
2019-04-25T19:43:21.295Z,1009.33
2019-04-25T19:44:21.274Z,1009.41
2019-04-25T19:45:21.253Z,1009.47
2019-04-25T19:46:21.240Z,1009.48
2019-04-25T19:47:21.216Z,1009.43
2019-04-25T19:48:21.195Z,1009.37
2019-04-25T19:49:21.175Z,1009.33
2019-04-25T19:50:21.155Z,1009.66
2019-04-25T19:51:21.136Z,1009.47
2019-04-25T19:52:21.116Z,1009.62
2019-04-25T19:53:21.099Z,1009.59
2019-04-25T19:54:21.077Z,1009.84
2019-04-25T19:55:21.057Z,1010.30
2019-04-25T19:56:21.037Z,1010.04
2019-04-25T19:57:21.019Z,1009.74
2019-04-25T19:58:20.996Z,1009.98
2019-04-25T19:59:20.977Z,1009.96
2019-04-25T20:00:20.955Z,1010.26
2019-04-25T20:01:20.939Z,1010.04
2019-04-25T20:02:20.916Z,1010.17
2019-04-25T20:03:20.897Z,1009.96
2019-04-25T20:04:20.882Z,1009.82
2019-04-25T20:05:20.855Z,1010.33
2019-04-25T20:06:20.835Z,1010.45
2019-04-25T20:07:20.817Z,1002.22
2019-04-25T20:08:28.523Z,985.94
2019-04-25T20:09:20.774Z,983.51
2019-04-25T20:10:20.754Z,982.56
2019-04-25T20:11:20.734Z,980.99
2019-04-25T20:12:20.711Z,964.76
2019-04-25T20:13:20.692Z,964.26
2019-04-25T20:14:20.669Z,965.44
2019-04-25T20:15:20.650Z,965.97
2019-04-25T20:16:20.630Z,966.85
2019-04-25T20:17:20.609Z,965.75
2019-04-25T20:18:20.588Z,964.91
2019-04-25T20:19:20.567Z,965.23
2019-04-25T20:20:20.547Z,965.94
2019-04-25T20:21:20.526Z,966.43
2019-04-25T20:22:20.504Z,967.11
2019-04-25T20:23:20.484Z,967.77
2019-04-25T20:24:20.464Z,968.45
2019-04-25T20:25:20.443Z,969.03
2019-04-25T20:26:20.423Z,969.46
2019-04-25T20:27:20.401Z,970.28
2019-04-25T20:28:20.381Z,970.62
2019-04-25T20:29:20.362Z,968.22
2019-04-25T20:30:20.343Z,975.19
2019-04-25T20:31:20.322Z,975.17
2019-04-25T20:32:20.300Z,975.30
2019-04-25T20:33:20.286Z,975.47
2019-04-25T20:34:20.257Z,975.73
2019-04-25T20:35:20.235Z,976.08
2019-04-25T20:36:20.214Z,976.25
2019-04-25T20:37:20.192Z,976.44
2019-04-25T20:38:20.169Z,976.75
2019-04-25T20:39:20.149Z,977.02
2019-04-25T20:40:20.127Z,977.26
2019-04-25T20:41:20.198Z,977.69
2019-04-25T20:42:20.087Z,977.36
2019-04-25T20:43:20.065Z,977.80
2019-04-25T20:44:20.044Z,983.30
2019-04-25T20:45:20.022Z,984.93
2019-04-25T20:46:20.002Z,988.61
2019-04-25T20:47:19.981Z,989.24
2019-04-25T20:48:19.960Z,989.69
2019-04-25T20:49:19.938Z,990.59
2019-04-25T20:50:19.918Z,991.25
2019-04-25T20:51:19.899Z,991.97
2019-04-25T20:52:19.876Z,992.01
2019-04-25T20:53:19.855Z,992.29
2019-04-25T20:54:19.842Z,992.50
2019-04-25T20:55:19.813Z,992.69
2019-04-25T20:56:19.815Z,992.79
2019-04-25T20:57:19.771Z,993.27
2019-04-25T20:58:19.752Z,993.52
2019-04-25T20:59:19.730Z,993.94
2019-04-25T21:00:19.711Z,994.02
2019-04-25T21:01:19.688Z,994.14
2019-04-25T21:02:19.667Z,994.45
2019-04-25T21:03:19.645Z,994.42
2019-04-25T21:04:19.623Z,994.99
2019-04-25T21:05:19.602Z,995.25
2019-04-25T21:06:19.582Z,995.32
2019-04-25T21:07:19.561Z,995.56
2019-04-25T21:08:19.562Z,995.74
2019-04-25T21:09:19.518Z,995.91
